Time;durP1;ratioP1;P1;durP2;ratioP2;P2;SDS_P1;SDS_P2;PMS_P1;PMS_P2;Temp;Humidity;BMP_temperature;BMP_pressure;BME280_temperature;BME280_humidity;BME280_pressure;Samples;Min_cycle;Max_cycle;Signal;HPM_P1;HPM_P2
2022/05/10 00:02:11;;;;;;;1.55;1.33;;;;;;;;;;5118079;28;20195;-55
2022/05/10 00:04:39;;;;;;;1.40;1.30;;;;;;;;;;5117763;28;20199;-55
2022/05/10 00:07:08;;;;;;;1.30;1.20;;;;;;;;;;5117990;28;20203;-55
2022/05/10 00:09:36;;;;;;;1.20;1.20;;;;;;;;;;5110615;28;20712;-55
2022/05/10 00:12:04;;;;;;;1.27;1.20;;;;;;;;;;5118340;28;20311;-55
2022/05/10 00:14:31;;;;;;;1.27;1.23;;;;;;;;;;5118252;28;20299;-55
2022/05/10 00:16:59;;;;;;;1.42;1.33;;;;;;;;;;5119557;28;20203;-55
2022/05/10 00:19:30;;;;;;;1.40;1.30;;;;;;;;;;5121814;28;20644;-55
2022/05/10 00:21:58;;;;;;;1.40;1.30;;;;;;;;;;5122095;28;20203;-55
2022/05/10 00:24:27;;;;;;;1.35;1.25;;;;;;;;;;5121821;28;20214;-55
2022/05/10 00:26:55;;;;;;;1.35;1.27;;;;;;;;;;5121979;28;20518;-55
2022/05/10 00:29:23;;;;;;;1.20;1.10;;;;;;;;;;5122282;28;20207;-55
2022/05/10 00:31:50;;;;;;;1.08;1.08;;;;;;;;;;5122242;28;20313;-55
2022/05/10 00:34:19;;;;;;;1.35;1.25;;;;;;;;;;5121972;28;20207;-55
2022/05/10 00:36:46;;;;;;;1.48;1.38;;;;;;;;;;5121325;28;20203;-55
2022/05/10 00:39:14;;;;;;;1.10;1.10;;;;;;;;;;5121529;28;20206;-55
2022/05/10 00:41:49;;;;;;;1.40;1.30;;;;;;;;;;5122132;28;20548;-55
2022/05/10 00:44:20;;;;;;;1.38;1.27;;;;;;;;;;5080664;28;20210;-55
2022/05/10 00:46:48;;;;;;;1.30;1.20;;;;;;;;;;5081221;28;20295;-54
2022/05/10 00:49:20;;;;;;;1.23;1.13;;;;;;;;;;5080912;28;20212;-55
2022/05/10 00:51:52;;;;;;;1.40;1.30;;;;;;;;;;5081026;28;20576;-55
2022/05/10 00:54:24;;;;;;;1.20;1.10;;;;;;;;;;5081188;28;20591;-55
2022/05/10 00:56:56;;;;;;;1.40;1.30;;;;;;;;;;5080479;28;20200;-55
2022/05/10 00:59:28;;;;;;;1.40;1.30;;;;;;;;;;5080556;28;20235;-55
2022/05/10 01:01:58;;;;;;;1.40;1.30;;;;;;;;;;5080735;28;20204;-55
2022/05/10 01:04:26;;;;;;;1.50;1.40;;;;;;;;;;5080644;28;20492;-55
2022/05/10 01:06:58;;;;;;;1.15;1.05;;;;;;;;;;5081038;28;20287;-55
2022/05/10 01:09:30;;;;;;;1.35;1.25;;;;;;;;;;5080656;28;20262;-55
2022/05/10 01:12:14;;;;;;;1.30;1.20;;;;;;;;;;5081067;28;20537;-55
2022/05/10 01:14:49;;;;;;;1.35;1.25;;;;;;;;;;5080634;28;20218;-55
2022/05/10 01:17:17;;;;;;;1.30;1.20;;;;;;;;;;5080630;28;20215;-55
2022/05/10 01:19:45;;;;;;;1.40;1.30;;;;;;;;;;5080161;28;20228;-55
2022/05/10 01:22:23;;;;;;;1.48;1.38;;;;;;;;;;5080208;28;20588;-55
2022/05/10 01:25:06;;;;;;;1.52;1.42;;;;;;;;;;5080371;28;20204;-55
2022/05/10 01:27:47;;;;;;;1.30;1.20;;;;;;;;;;5078938;28;20204;-54
2022/05/10 01:30:17;;;;;;;1.40;1.30;;;;;;;;;;5098214;28;20602;-55
2022/05/10 01:35:35;;;;;;;1.20;1.10;;;;;;;;;;5100244;28;20203;-55
2022/05/10 01:38:05;;;;;;;1.35;1.23;;;;;;;;;;5100194;28;20243;-55
2022/05/10 01:40:34;;;;;;;1.25;1.15;;;;;;;;;;5099786;28;20238;-55
2022/05/10 01:43:04;;;;;;;1.52;1.10;;;;;;;;;;5110942;28;20234;-55
2022/05/10 01:45:35;;;;;;;2.05;1.38;;;;;;;;;;5120792;28;20202;-55
2022/05/10 01:48:04;;;;;;;1.35;1.25;;;;;;;;;;5114281;28;20196;-55
2022/05/10 01:50:34;;;;;;;1.08;1.08;;;;;;;;;;5099978;28;20606;-55
2022/05/10 01:53:05;;;;;;;1.40;1.30;;;;;;;;;;5099976;28;20235;-55
2022/05/10 01:55:34;;;;;;;1.33;1.27;;;;;;;;;;5099584;28;20204;-55
2022/05/10 01:58:04;;;;;;;1.83;1.30;;;;;;;;;;5098902;28;20503;-55
2022/05/10 02:00:33;;;;;;;1.40;1.15;;;;;;;;;;5100069;28;20235;-55
2022/05/10 02:03:07;;;;;;;1.30;1.20;;;;;;;;;;5100049;28;20460;-55
2022/05/10 02:05:36;;;;;;;1.30;1.20;;;;;;;;;;5099623;28;20215;-55
2022/05/10 02:08:07;;;;;;;1.52;1.30;;;;;;;;;;5099255;28;20203;-55
2022/05/10 02:10:43;;;;;;;1.20;1.20;;;;;;;;;;5103548;28;20525;-55
2022/05/10 02:13:15;;;;;;;1.00;1.00;;;;;;;;;;5119618;28;20242;-55
2022/05/10 02:15:47;;;;;;;1.52;1.42;;;;;;;;;;5120107;28;20203;-55
2022/05/10 02:18:20;;;;;;;1.75;1.48;;;;;;;;;;5119796;28;20552;-55
2022/05/10 02:20:51;;;;;;;1.10;1.10;;;;;;;;;;5119872;28;20230;-55
2022/05/10 02:23:21;;;;;;;1.20;1.20;;;;;;;;;;5119885;28;20235;-54
2022/05/10 02:25:51;;;;;;;1.30;1.10;;;;;;;;;;5119951;28;20256;-54
2022/05/10 02:28:22;;;;;;;1.10;1.10;;;;;;;;;;5116135;28;20200;-55
2022/05/10 02:30:52;;;;;;;1.13;1.13;;;;;;;;;;5099692;28;20200;-55
2022/05/10 02:33:21;;;;;;;1.40;1.30;;;;;;;;;;5099172;28;20242;-55
2022/05/10 02:35:50;;;;;;;1.30;1.20;;;;;;;;;;5099394;28;20250;-55
2022/05/10 02:38:19;;;;;;;1.17;1.17;;;;;;;;;;5099088;28;20203;-55
2022/05/10 02:40:47;;;;;;;1.10;1.10;;;;;;;;;;5098196;28;20770;-55
2022/05/10 02:43:17;;;;;;;1.40;1.30;;;;;;;;;;5098834;28;20775;-55
2022/05/10 02:45:45;;;;;;;1.10;1.10;;;;;;;;;;5098247;28;20638;-55
2022/05/10 02:48:17;;;;;;;1.27;1.17;;;;;;;;;;5098918;28;20204;-55
2022/05/10 02:50:46;;;;;;;1.20;1.05;;;;;;;;;;5098949;28;20613;-55
2022/05/10 02:53:14;;;;;;;1.20;1.20;;;;;;;;;;5116272;28;20206;-55
2022/05/10 02:55:44;;;;;;;1.10;1.10;;;;;;;;;;5118699;28;20202;-55
2022/05/10 02:58:17;;;;;;;1.70;1.35;;;;;;;;;;5119136;28;20203;-55
2022/05/10 03:00:46;;;;;;;1.42;1.30;;;;;;;;;;5119140;28;20314;-55
2022/05/10 03:03:17;;;;;;;1.33;1.20;;;;;;;;;;5119100;28;20203;-55
2022/05/10 03:05:46;;;;;;;1.48;1.38;;;;;;;;;;5118780;28;20217;-55
2022/05/10 03:08:14;;;;;;;1.30;1.20;;;;;;;;;;5118839;28;20203;-55
2022/05/10 03:10:41;;;;;;;1.30;1.17;;;;;;;;;;5118540;28;20221;-55
2022/05/10 03:13:09;;;;;;;2.30;1.15;;;;;;;;;;5118869;28;20211;-54
2022/05/10 03:15:37;;;;;;;1.55;1.20;;;;;;;;;;5118364;28;20285;-55
2022/05/10 03:18:04;;;;;;;1.40;1.20;;;;;;;;;;5118314;28;20199;-55
2022/05/10 03:20:32;;;;;;;1.40;1.30;;;;;;;;;;5118788;28;20497;-55
2022/05/10 03:23:01;;;;;;;1.15;1.13;;;;;;;;;;5118522;28;20211;-55
2022/05/10 03:25:31;;;;;;;1.30;1.20;;;;;;;;;;5118010;28;20275;-54
2022/05/10 03:28:00;;;;;;;1.25;1.15;;;;;;;;;;5118243;28;20210;-55
2022/05/10 03:30:28;;;;;;;1.73;1.50;;;;;;;;;;5118181;28;20638;-55
2022/05/10 03:32:55;;;;;;;1.38;1.20;;;;;;;;;;5118341;28;20486;-54
2022/05/10 03:35:23;;;;;;;1.30;1.20;;;;;;;;;;5118271;28;20283;-54
2022/05/10 03:37:51;;;;;;;1.25;1.20;;;;;;;;;;5118108;28;20305;-55
2022/05/10 03:40:20;;;;;;;1.45;1.30;;;;;;;;;;5118317;28;20613;-55
2022/05/10 03:42:49;;;;;;;1.25;1.15;;;;;;;;;;5117186;28;20310;-55
2022/05/10 03:45:18;;;;;;;1.45;1.35;;;;;;;;;;5118154;28;20485;-55
2022/05/10 03:47:47;;;;;;;1.30;1.20;;;;;;;;;;5117961;28;20296;-55
2022/05/10 03:50:15;;;;;;;1.25;1.13;;;;;;;;;;5118552;28;20449;-55
2022/05/10 03:52:43;;;;;;;1.42;1.15;;;;;;;;;;5120690;28;20297;-55
2022/05/10 03:55:12;;;;;;;1.60;1.10;;;;;;;;;;5121565;28;20227;-54
2022/05/10 03:57:41;;;;;;;1.52;1.20;;;;;;;;;;5121981;28;20622;-55
2022/05/10 04:00:10;;;;;;;1.20;1.15;;;;;;;;;;5121236;28;20210;-54
2022/05/10 04:02:38;;;;;;;1.55;1.00;;;;;;;;;;5121280;28;20234;-55
2022/05/10 04:05:07;;;;;;;1.20;1.20;;;;;;;;;;5121115;28;20579;-55
2022/05/10 04:07:35;;;;;;;1.25;1.00;;;;;;;;;;5121159;28;20210;-54
2022/05/10 04:10:02;;;;;;;1.55;1.45;;;;;;;;;;5121368;28;20484;-54
2022/05/10 04:12:30;;;;;;;2.28;1.20;;;;;;;;;;5121712;28;20207;-55
2022/05/10 04:14:59;;;;;;;1.10;1.00;;;;;;;;;;5121566;28;20609;-54
2022/05/10 04:17:27;;;;;;;2.50;1.20;;;;;;;;;;5120859;28;20260;-54
2022/05/10 04:19:56;;;;;;;1.20;1.20;;;;;;;;;;5120930;28;20225;-54
2022/05/10 04:22:23;;;;;;;1.17;1.08;;;;;;;;;;5120865;28;20223;-54
2022/05/10 04:24:51;;;;;;;1.20;1.10;;;;;;;;;;5120380;28;20205;-55
2022/05/10 04:27:19;;;;;;;1.30;1.20;;;;;;;;;;5120676;28;20252;-55
2022/05/10 04:29:46;;;;;;;1.20;1.10;;;;;;;;;;5120997;28;20237;-54
2022/05/10 04:32:15;;;;;;;1.35;1.20;;;;;;;;;;5119985;28;20195;-55
2022/05/10 04:34:43;;;;;;;1.88;1.20;;;;;;;;;;5119704;28;20208;-54
2022/05/10 04:37:11;;;;;;;1.30;1.25;;;;;;;;;;5120122;28;20311;-54
2022/05/10 04:42:24;;;;;;;1.40;1.30;;;;;;;;;;5119442;28;20311;-54
2022/05/10 04:44:52;;;;;;;1.40;1.30;;;;;;;;;;5120129;28;20202;-54
2022/05/10 04:47:22;;;;;;;1.40;1.30;;;;;;;;;;5119098;28;20567;-54
2022/05/10 04:49:49;;;;;;;1.38;1.23;;;;;;;;;;5119237;28;20209;-54
2022/05/10 04:52:17;;;;;;;1.20;1.10;;;;;;;;;;5120154;28;20199;-54
2022/05/10 04:54:46;;;;;;;1.30;1.20;;;;;;;;;;5119143;28;20596;-55
2022/05/10 04:57:14;;;;;;;1.40;1.27;;;;;;;;;;5118611;28;20203;-55
2022/05/10 04:59:41;;;;;;;1.40;1.30;;;;;;;;;;5118292;28;20209;-54
2022/05/10 05:02:09;;;;;;;1.30;1.20;;;;;;;;;;5117919;28;20215;-54
2022/05/10 05:04:39;;;;;;;1.00;1.00;;;;;;;;;;5117376;28;20698;-55
2022/05/10 05:07:07;;;;;;;1.33;1.23;;;;;;;;;;5117847;28;20202;-55
2022/05/10 05:09:34;;;;;;;1.30;1.20;;;;;;;;;;5117486;28;20218;-54
2022/05/10 05:12:04;;;;;;;1.70;1.15;;;;;;;;;;5117917;28;20251;-55
2022/05/10 05:14:32;;;;;;;1.40;1.30;;;;;;;;;;5117710;28;20575;-55
2022/05/10 05:17:00;;;;;;;1.27;1.17;;;;;;;;;;5117601;28;20203;-54
2022/05/10 05:19:28;;;;;;;1.15;1.15;;;;;;;;;;5117560;28;20207;-54
2022/05/10 05:21:58;;;;;;;1.40;1.30;;;;;;;;;;5116821;28;20288;-55
2022/05/10 05:24:26;;;;;;;1.10;1.10;;;;;;;;;;5117920;28;20214;-55
2022/05/10 05:26:54;;;;;;;1.38;1.27;;;;;;;;;;5118244;28;20684;-55
2022/05/10 05:29:23;;;;;;;1.20;1.10;;;;;;;;;;5117967;28;20205;-55
2022/05/10 05:31:51;;;;;;;1.20;1.08;;;;;;;;;;5117503;28;20507;-54
2022/05/10 05:34:19;;;;;;;1.20;1.10;;;;;;;;;;5117838;28;20284;-55
2022/05/10 05:37:32;;;;;;;1.13;1.10;;;;;;;;;;5118073;28;20298;-54
2022/05/10 05:39:37;;;;;;;1.40;1.30;;;;;;;;;;5117842;28;20761;-55
2022/05/10 05:42:05;;;;;;;1.17;1.17;;;;;;;;;;5116788;28;20226;-55
2022/05/10 05:44:34;;;;;;;1.48;1.20;;;;;;;;;;5118123;28;20499;-54
2022/05/10 05:47:02;;;;;;;1.20;1.20;;;;;;;;;;5117292;28;20625;-55
2022/05/10 05:49:30;;;;;;;1.33;1.00;;;;;;;;;;5117169;28;20203;-55
2022/05/10 05:51:58;;;;;;;1.20;1.20;;;;;;;;;;5116901;28;20229;-54
2022/05/10 05:54:26;;;;;;;1.25;1.15;;;;;;;;;;5117259;28;20211;-55
2022/05/10 05:57:01;;;;;;;1.30;1.20;;;;;;;;;;5116794;28;20271;-55
2022/05/10 05:59:29;;;;;;;1.23;1.23;;;;;;;;;;5116538;28;20298;-54
2022/05/10 06:01:57;;;;;;;1.20;1.10;;;;;;;;;;5117393;28;20283;-54
2022/05/10 06:04:25;;;;;;;1.48;1.38;;;;;;;;;;5117314;28;20233;-55
2022/05/10 06:06:53;;;;;;;1.30;1.20;;;;;;;;;;5116801;28;20660;-54
2022/05/10 06:09:22;;;;;;;1.30;1.20;;;;;;;;;;5117476;28;20203;-55
2022/05/10 06:11:50;;;;;;;1.10;1.10;;;;;;;;;;5116187;28;20240;-55
2022/05/10 06:14:20;;;;;;;1.40;1.30;;;;;;;;;;5114925;28;20214;-55
2022/05/10 06:16:48;;;;;;;1.20;1.10;;;;;;;;;;5115836;28;20198;-55
2022/05/10 06:19:16;;;;;;;1.23;1.13;;;;;;;;;;5117962;28;20206;-55
2022/05/10 06:21:43;;;;;;;1.10;1.10;;;;;;;;;;5116996;28;20236;-55
2022/05/10 06:24:11;;;;;;;1.30;1.20;;;;;;;;;;5117121;28;20213;-63
2022/05/10 06:26:38;;;;;;;1.30;1.30;;;;;;;;;;5116647;28;20266;-57
2022/05/10 06:29:06;;;;;;;47.85;6.55;;;;;;;;;;5117001;28;20207;-57
2022/05/10 06:31:36;;;;;;;1.85;1.30;;;;;;;;;;5116853;28;20198;-57
2022/05/10 06:34:04;;;;;;;4.00;1.20;;;;;;;;;;5117030;28;20253;-57
2022/05/10 06:36:31;;;;;;;1.90;1.50;;;;;;;;;;5117117;28;20203;-57
2022/05/10 06:38:59;;;;;;;1.75;1.40;;;;;;;;;;5117344;28;20234;-57
2022/05/10 06:41:26;;;;;;;1.73;1.20;;;;;;;;;;5116176;28;20222;-57
2022/05/10 06:43:53;;;;;;;1.98;1.33;;;;;;;;;;5116511;28;20278;-57
2022/05/10 06:46:21;;;;;;;1.20;1.10;;;;;;;;;;5115770;28;20289;-57
2022/05/10 06:48:50;;;;;;;1.40;1.30;;;;;;;;;;5116020;28;20214;-57
2022/05/10 06:51:19;;;;;;;1.45;1.17;;;;;;;;;;5116134;28;20512;-57
2022/05/10 06:53:47;;;;;;;1.33;1.23;;;;;;;;;;5114324;28;20199;-57
2022/05/10 06:56:14;;;;;;;1.40;1.30;;;;;;;;;;5116442;28;20203;-57
2022/05/10 06:58:41;;;;;;;1.33;1.23;;;;;;;;;;5116001;28;20222;-57
2022/05/10 07:01:11;;;;;;;1.90;1.30;;;;;;;;;;5116023;28;20205;-57
2022/05/10 07:03:39;;;;;;;1.77;1.38;;;;;;;;;;5115564;28;20198;-57
2022/05/10 07:06:09;;;;;;;1.30;1.20;;;;;;;;;;5115699;28;20198;-57
2022/05/10 07:08:37;;;;;;;1.30;1.20;;;;;;;;;;5115179;28;20199;-57
2022/05/10 07:11:05;;;;;;;1.77;1.30;;;;;;;;;;5115559;28;20210;-57
2022/05/10 07:13:32;;;;;;;1.55;1.25;;;;;;;;;;5116036;28;20201;-57
2022/05/10 07:16:00;;;;;;;1.60;1.50;;;;;;;;;;5115615;28;20285;-57
2022/05/10 07:18:28;;;;;;;1.60;1.30;;;;;;;;;;5115305;28;20205;-56
2022/05/10 07:20:58;;;;;;;1.67;1.40;;;;;;;;;;5114149;28;20198;-57
2022/05/10 07:23:30;;;;;;;3.65;1.35;;;;;;;;;;5115106;28;20238;-57
2022/05/10 07:25:58;;;;;;;1.55;1.42;;;;;;;;;;5115611;28;20229;-57
2022/05/10 07:28:29;;;;;;;1.58;1.48;;;;;;;;;;5114812;28;20213;-56
2022/05/10 07:30:56;;;;;;;1.75;1.63;;;;;;;;;;5114740;28;20206;-57
2022/05/10 07:33:24;;;;;;;1.63;1.52;;;;;;;;;;5115630;28;20221;-57
2022/05/10 07:38:38;;;;;;;3.03;1.83;;;;;;;;;;5115453;28;20190;-57
2022/05/10 07:41:06;;;;;;;1.60;1.50;;;;;;;;;;5115408;28;20210;-57
2022/05/10 07:43:35;;;;;;;2.00;1.90;;;;;;;;;;5114967;28;20324;-57
2022/05/10 07:46:02;;;;;;;2.10;1.80;;;;;;;;;;5095214;28;20196;-57
2022/05/10 07:48:29;;;;;;;1.90;1.70;;;;;;;;;;5095565;28;20203;-57
2022/05/10 07:50:57;;;;;;;2.20;2.00;;;;;;;;;;5095279;28;20204;-57
2022/05/10 07:53:24;;;;;;;1.92;1.83;;;;;;;;;;5095139;28;20209;-57
2022/05/10 07:55:53;;;;;;;1.88;1.77;;;;;;;;;;5095552;28;20204;-57
2022/05/10 07:58:20;;;;;;;2.13;1.92;;;;;;;;;;5094814;28;20211;-56
2022/05/10 08:00:48;;;;;;;1.98;1.88;;;;;;;;;;5094686;28;20207;-56
2022/05/10 08:03:17;;;;;;;1.63;1.52;;;;;;;;;;5094805;28;20553;-57
2022/05/10 08:05:45;;;;;;;1.80;1.70;;;;;;;;;;5095195;28;20234;-57
2022/05/10 08:08:12;;;;;;;2.83;2.10;;;;;;;;;;5094058;28;20203;-57
2022/05/10 08:10:41;;;;;;;2.00;1.83;;;;;;;;;;5103226;28;20202;-57
2022/05/10 08:13:12;;;;;;;1.80;1.70;;;;;;;;;;5115031;28;20229;-57
2022/05/10 08:15:40;;;;;;;1.70;1.60;;;;;;;;;;5115459;28;20226;-57
2022/05/10 08:18:08;;;;;;;1.98;1.80;;;;;;;;;;5114883;28;20207;-57
2022/05/10 08:20:35;;;;;;;1.95;1.83;;;;;;;;;;5114859;28;20216;-57
2022/05/10 08:23:04;;;;;;;2.10;2.00;;;;;;;;;;5115352;28;20227;-56
2022/05/10 08:25:31;;;;;;;1.88;1.77;;;;;;;;;;5115199;28;20243;-57
2022/05/10 08:27:58;;;;;;;2.25;1.90;;;;;;;;;;5114732;28;20204;-57
2022/05/10 08:30:27;;;;;;;1.90;1.80;;;;;;;;;;5115700;28;20207;-57
2022/05/10 08:32:55;;;;;;;2.00;1.90;;;;;;;;;;5115536;28;20548;-57
2022/05/10 08:35:23;;;;;;;2.30;2.10;;;;;;;;;;5115250;28;20408;-57
2022/05/10 08:37:51;;;;;;;1.90;1.80;;;;;;;;;;5115362;28;20191;-57
2022/05/10 08:40:23;;;;;;;2.05;1.95;;;;;;;;;;5118499;28;20214;-57
2022/05/10 08:42:52;;;;;;;2.45;2.05;;;;;;;;;;5118586;28;20261;-56
2022/05/10 08:45:20;;;;;;;2.10;2.00;;;;;;;;;;5118051;28;20195;-57
2022/05/10 08:47:49;;;;;;;2.30;2.15;;;;;;;;;;5117841;28;20207;-57
2022/05/10 08:50:16;;;;;;;2.00;1.90;;;;;;;;;;5117146;28;20263;-57
2022/05/10 08:52:45;;;;;;;2.17;2.00;;;;;;;;;;5118291;28;20198;-57
2022/05/10 08:55:15;;;;;;;2.30;2.10;;;;;;;;;;5118216;28;20203;-57
2022/05/10 08:57:48;;;;;;;2.85;2.00;;;;;;;;;;5118257;28;20753;-57
2022/05/10 09:00:19;;;;;;;2.20;2.10;;;;;;;;;;5118202;28;20202;-57
2022/05/10 09:02:50;;;;;;;2.28;2.17;;;;;;;;;;5116999;28;20226;-57
2022/05/10 09:05:22;;;;;;;2.40;2.20;;;;;;;;;;5117018;28;20207;-57
2022/05/10 09:07:54;;;;;;;2.40;2.30;;;;;;;;;;5118574;28;20490;-57
2022/05/10 09:10:24;;;;;;;2.70;2.50;;;;;;;;;;5118048;28;20270;-57
2022/05/10 09:12:58;;;;;;;2.35;2.25;;;;;;;;;;5118495;28;20199;-57
2022/05/10 09:15:26;;;;;;;2.40;2.20;;;;;;;;;;5118907;28;20225;-57
2022/05/10 09:17:56;;;;;;;2.58;2.47;;;;;;;;;;5118174;28;20203;-57
2022/05/10 09:20:23;;;;;;;2.97;2.78;;;;;;;;;;5117520;28;20247;-57
2022/05/10 09:22:59;;;;;;;2.75;2.55;;;;;;;;;;5118107;28;20235;-56
2022/05/10 09:25:32;;;;;;;2.97;2.78;;;;;;;;;;5117708;28;20259;-57
2022/05/10 09:28:00;;;;;;;3.55;3.08;;;;;;;;;;5117833;28;20203;-56
2022/05/10 09:30:29;;;;;;;2.60;2.50;;;;;;;;;;5117722;28;20195;-56
2022/05/10 09:36:01;;;;;;;3.00;2.70;;;;;;;;;;5116993;28;20248;-57
2022/05/10 09:38:28;;;;;;;2.80;2.60;;;;;;;;;;5116599;28;20293;-56
2022/05/10 09:40:55;;;;;;;2.75;2.55;;;;;;;;;;5117783;28;20195;-56
2022/05/10 09:43:26;;;;;;;3.28;2.97;;;;;;;;;;5096245;28;20242;-56
2022/05/10 09:46:05;;;;;;;2.80;2.60;;;;;;;;;;5095732;28;20620;-57
2022/05/10 09:48:34;;;;;;;2.80;2.60;;;;;;;;;;5096592;28;20199;-56
2022/05/10 09:51:19;;;;;;;2.70;2.50;;;;;;;;;;5095856;28;20203;-56
2022/05/10 09:53:46;;;;;;;3.00;2.80;;;;;;;;;;5096555;28;20199;-57
2022/05/10 09:56:29;;;;;;;3.08;2.78;;;;;;;;;;5097131;28;20199;-56
2022/05/10 09:58:58;;;;;;;2.80;2.60;;;;;;;;;;5115152;28;20210;-57
2022/05/10 10:01:38;;;;;;;3.28;3.08;;;;;;;;;;5116509;28;20199;-56
2022/05/10 10:04:19;;;;;;;3.10;2.90;;;;;;;;;;5116727;28;20605;-56
2022/05/10 10:06:46;;;;;;;2.95;2.75;;;;;;;;;;5116797;28;20203;-56
2022/05/10 10:09:29;;;;;;;3.10;2.90;;;;;;;;;;5116347;28;20230;-57
2022/05/10 10:11:57;;;;;;;3.00;2.80;;;;;;;;;;5115902;28;20207;-56
2022/05/10 10:14:34;;;;;;;2.80;2.60;;;;;;;;;;5116339;28;20206;-56
2022/05/10 10:17:02;;;;;;;3.40;3.10;;;;;;;;;;5116454;28;20255;-56
2022/05/10 10:19:35;;;;;;;3.30;3.10;;;;;;;;;;5116016;28;20235;-57
2022/05/10 10:22:04;;;;;;;3.33;3.13;;;;;;;;;;5116918;28;20203;-57
2022/05/10 10:24:34;;;;;;;3.20;2.92;;;;;;;;;;5115424;28;20229;-56
2022/05/10 10:27:06;;;;;;;3.40;3.20;;;;;;;;;;5115447;28;20206;-56
2022/05/10 10:29:36;;;;;;;2.97;2.78;;;;;;;;;;5114541;28;20280;-56
2022/05/10 10:32:07;;;;;;;3.20;3.00;;;;;;;;;;5102894;28;20192;-56
2022/05/10 10:34:38;;;;;;;3.22;3.03;;;;;;;;;;5094269;28;20489;-56
2022/05/10 10:37:08;;;;;;;3.10;2.90;;;;;;;;;;5095690;28;20492;-56
2022/05/10 10:39:40;;;;;;;3.35;3.15;;;;;;;;;;5094747;28;20211;-56
2022/05/10 10:42:10;;;;;;;3.10;2.90;;;;;;;;;;5095271;28;20200;-56
2022/05/10 10:44:40;;;;;;;3.30;3.10;;;;;;;;;;5093798;28;20819;-56
2022/05/10 10:47:12;;;;;;;2.90;2.70;;;;;;;;;;5094672;28;20522;-57
2022/05/10 10:49:46;;;;;;;3.80;3.50;;;;;;;;;;5094596;28;20629;-57
2022/05/10 10:52:14;;;;;;;3.33;3.13;;;;;;;;;;5111275;28;20194;-56
2022/05/10 10:54:42;;;;;;;3.50;3.30;;;;;;;;;;5114765;28;20202;-56
2022/05/10 10:57:17;;;;;;;3.28;3.08;;;;;;;;;;5114344;28;20205;-56
2022/05/10 11:00:02;;;;;;;3.30;3.10;;;;;;;;;;5114830;28;20577;-56
2022/05/10 11:02:42;;;;;;;3.30;3.10;;;;;;;;;;5114232;28;20209;-56
2022/05/10 11:05:25;;;;;;;3.72;3.42;;;;;;;;;;5114961;28;20235;-56
2022/05/10 11:07:58;;;;;;;3.38;3.17;;;;;;;;;;5115781;28;20198;-56
2022/05/10 11:10:28;;;;;;;4.47;3.30;;;;;;;;;;5114188;28;20203;-56
2022/05/10 11:13:00;;;;;;;3.13;2.92;;;;;;;;;;5114538;28;20574;-56
2022/05/10 11:15:35;;;;;;;3.00;2.80;;;;;;;;;;5115239;28;20207;-56
2022/05/10 11:18:08;;;;;;;3.20;3.00;;;;;;;;;;5114395;28;20233;-56
2022/05/10 11:20:45;;;;;;;3.47;3.20;;;;;;;;;;5114821;28;20203;-56
2022/05/10 11:23:15;;;;;;;3.53;3.33;;;;;;;;;;5115510;28;20222;-56
2022/05/10 11:25:58;;;;;;;3.13;2.92;;;;;;;;;;5113796;28;20195;-56
2022/05/10 11:28:40;;;;;;;3.38;3.17;;;;;;;;;;5113058;28;20499;-56
2022/05/10 11:31:11;;;;;;;3.30;3.10;;;;;;;;;;5114633;28;20194;-56
2022/05/10 11:33:46;;;;;;;3.33;3.13;;;;;;;;;;5113491;28;20209;-56
2022/05/10 11:36:21;;;;;;;3.38;3.17;;;;;;;;;;5113208;28;20194;-56
2022/05/10 11:39:06;;;;;;;3.42;3.22;;;;;;;;;;5113838;28;20566;-56
2022/05/10 11:41:37;;;;;;;3.13;2.92;;;;;;;;;;5113017;28;20230;-57
2022/05/10 11:44:15;;;;;;;3.40;3.10;;;;;;;;;;5113127;28;20249;-56
2022/05/10 11:46:57;;;;;;;3.08;2.88;;;;;;;;;;5113882;28;20203;-57
2022/05/10 11:49:40;;;;;;;3.80;3.50;;;;;;;;;;5111575;28;20590;-56
2022/05/10 11:52:26;;;;;;;3.45;3.25;;;;;;;;;;5112151;28;20229;-56
2022/05/10 11:54:57;;;;;;;4.10;3.80;;;;;;;;;;5113804;28;20217;-56
2022/05/10 11:57:25;;;;;;;3.88;3.58;;;;;;;;;;5114360;28;20204;-56
2022/05/10 11:59:53;;;;;;;4.05;3.78;;;;;;;;;;5114598;28;20214;-56
2022/05/10 12:02:48;;;;;;;3.63;3.33;;;;;;;;;;5114813;28;20207;-56
2022/05/10 12:05:26;;;;;;;3.63;3.42;;;;;;;;;;5096318;28;20199;-57
2022/05/10 12:07:54;;;;;;;3.58;3.38;;;;;;;;;;5114833;28;20195;-56
2022/05/10 12:10:35;;;;;;;3.53;3.33;;;;;;;;;;5114011;28;20617;-56
2022/05/10 12:13:12;;;;;;;3.50;3.30;;;;;;;;;;5115436;28;20305;-56
2022/05/10 12:21:21;;;;;;;3.78;3.47;;;;;;;;;;5117554;28;20247;-57
2022/05/10 12:24:04;;;;;;;3.60;3.40;;;;;;;;;;5117023;28;20305;-57
2022/05/10 12:26:45;;;;;;;3.63;3.42;;;;;;;;;;5117607;28;20203;-57
2022/05/10 12:29:31;;;;;;;3.85;3.65;;;;;;;;;;5116501;28;20213;-57
2022/05/10 12:31:59;;;;;;;3.50;3.30;;;;;;;;;;5115697;28;20279;-56
2022/05/10 12:34:57;;;;;;;3.75;3.45;;;;;;;;;;5116407;28;20351;-57
2022/05/10 12:37:48;;;;;;;4.07;3.78;;;;;;;;;;5116976;28;20211;-56
2022/05/10 12:40:17;;;;;;;3.63;3.42;;;;;;;;;;5117563;28;20225;-56
2022/05/10 12:42:52;;;;;;;4.00;3.70;;;;;;;;;;5115509;28;20231;-57
2022/05/10 12:45:26;;;;;;;3.70;3.50;;;;;;;;;;5115749;28;20242;-57
2022/05/10 12:47:57;;;;;;;4.22;3.92;;;;;;;;;;5114598;28;20198;-56
2022/05/10 12:50:35;;;;;;;3.80;3.60;;;;;;;;;;5114537;28;20199;-57
2022/05/10 12:53:02;;;;;;;3.80;3.60;;;;;;;;;;5115604;28;20214;-56
2022/05/10 12:55:32;;;;;;;3.75;3.55;;;;;;;;;;5114953;28;20202;-56
2022/05/10 12:58:03;;;;;;;3.67;3.47;;;;;;;;;;5114713;28;20203;-56
2022/05/10 13:00:34;;;;;;;4.00;3.80;;;;;;;;;;5114911;28;20199;-57
2022/05/10 13:03:05;;;;;;;3.75;3.55;;;;;;;;;;5113139;28;20205;-56
2022/05/10 13:05:42;;;;;;;4.10;3.80;;;;;;;;;;5114358;28;20195;-56
2022/05/10 13:08:27;;;;;;;3.92;3.67;;;;;;;;;;5114053;28;20195;-56
2022/05/10 13:10:56;;;;;;;3.90;3.70;;;;;;;;;;5114312;28;20202;-56
2022/05/10 13:13:32;;;;;;;4.05;3.72;;;;;;;;;;5114054;28;20215;-56
2022/05/10 13:16:00;;;;;;;4.05;3.75;;;;;;;;;;5114155;28;20233;-57
2022/05/10 13:18:29;;;;;;;3.80;3.60;;;;;;;;;;5113639;28;20202;-56
2022/05/10 13:20:57;;;;;;;3.90;3.70;;;;;;;;;;5113521;28;20267;-56
2022/05/10 13:23:28;;;;;;;3.78;3.58;;;;;;;;;;5113744;28;20199;-56
2022/05/10 13:25:56;;;;;;;3.70;3.50;;;;;;;;;;5113057;28;20745;-56
2022/05/10 13:28:25;;;;;;;3.88;3.67;;;;;;;;;;5115036;28;20203;-57
2022/05/10 13:30:54;;;;;;;3.80;3.60;;;;;;;;;;5114430;28;20729;-57
2022/05/10 13:33:27;;;;;;;3.88;3.65;;;;;;;;;;5113013;28;20503;-56
2022/05/10 13:35:56;;;;;;;3.83;3.58;;;;;;;;;;5113216;28;20195;-56
2022/05/10 13:38:26;;;;;;;3.80;3.60;;;;;;;;;;5113385;28;20195;-56
2022/05/10 13:40:56;;;;;;;3.88;3.60;;;;;;;;;;5113412;28;20234;-56
2022/05/10 13:43:25;;;;;;;3.83;3.63;;;;;;;;;;5113496;28;20231;-56
2022/05/10 13:45:55;;;;;;;3.88;3.67;;;;;;;;;;5114578;28;20211;-56
2022/05/10 13:48:27;;;;;;;4.15;3.85;;;;;;;;;;5113897;28;20210;-56
2022/05/10 13:50:56;;;;;;;4.28;3.97;;;;;;;;;;5113265;28;20199;-56
2022/05/10 13:53:28;;;;;;;4.05;3.75;;;;;;;;;;5114000;28;20209;-56
2022/05/10 13:55:56;;;;;;;4.30;3.95;;;;;;;;;;5113690;28;20210;-56
2022/05/10 13:58:29;;;;;;;4.07;3.78;;;;;;;;;;5113886;28;20199;-57
2022/05/10 14:00:59;;;;;;;3.83;3.63;;;;;;;;;;5114483;28;20199;-56
2022/05/10 14:03:27;;;;;;;4.05;3.78;;;;;;;;;;5113049;28;20203;-57
2022/05/10 14:06:00;;;;;;;4.00;3.70;;;;;;;;;;5112805;28;20819;-56
2022/05/10 14:08:28;;;;;;;4.20;3.90;;;;;;;;;;5113893;28;20579;-56
2022/05/10 14:11:00;;;;;;;4.40;4.00;;;;;;;;;;5113809;28;20298;-56
2022/05/10 14:13:29;;;;;;;4.07;3.88;;;;;;;;;;5113362;28;20287;-56
2022/05/10 14:15:59;;;;;;;4.30;4.00;;;;;;;;;;5113376;28;20195;-56
2022/05/10 14:18:29;;;;;;;4.20;3.90;;;;;;;;;;5112427;28;20574;-56
2022/05/10 14:21:02;;;;;;;4.13;3.83;;;;;;;;;;5112515;28;20199;-56
2022/05/10 14:23:30;;;;;;;4.32;4.03;;;;;;;;;;5112354;28;20698;-57
2022/05/10 14:26:00;;;;;;;4.40;4.10;;;;;;;;;;5113160;28;20217;-56
2022/05/10 14:28:32;;;;;;;3.95;3.70;;;;;;;;;;5111627;28;20203;-56
2022/05/10 14:31:11;;;;;;;4.20;3.90;;;;;;;;;;5112632;28;20207;-56
2022/05/10 14:33:39;;;;;;;4.10;3.80;;;;;;;;;;5113637;28;20221;-56
2022/05/10 14:36:09;;;;;;;4.00;3.80;;;;;;;;;;5111674;28;20210;-56
2022/05/10 14:38:40;;;;;;;4.22;3.92;;;;;;;;;;5113364;28;20195;-56
2022/05/10 14:41:08;;;;;;;4.60;4.00;;;;;;;;;;5098234;28;20274;-56
2022/05/10 14:43:37;;;;;;;4.13;3.83;;;;;;;;;;5113290;28;20239;-56
2022/05/10 14:46:20;;;;;;;4.07;3.78;;;;;;;;;;5113072;28;20263;-56
2022/05/10 14:48:57;;;;;;;4.55;4.15;;;;;;;;;;5111333;28;20198;-56
2022/05/10 14:51:34;;;;;;;3.92;3.70;;;;;;;;;;5112813;28;20203;-56
2022/05/10 14:54:02;;;;;;;5.28;3.97;;;;;;;;;;5110214;28;20191;-56
2022/05/10 14:56:30;;;;;;;4.40;4.20;;;;;;;;;;5112439;28;20203;-57
2022/05/10 14:59:08;;;;;;;4.65;4.35;;;;;;;;;;5111951;28;20205;-56
2022/05/10 15:01:36;;;;;;;3.90;3.70;;;;;;;;;;5111978;28;20731;-56
2022/05/10 15:04:11;;;;;;;4.32;4.03;;;;;;;;;;5112528;28;20333;-56
2022/05/10 15:06:40;;;;;;;4.20;3.90;;;;;;;;;;5113135;28;20203;-57
2022/05/10 15:09:08;;;;;;;4.38;4.07;;;;;;;;;;5110574;28;20802;-56
2022/05/10 15:13:03;;;;;;;3.95;3.75;;;;;;;;;;5111694;28;20199;-56
2022/05/10 15:14:23;;;;;;;4.35;3.95;;;;;;;;;;5111333;28;20313;-56
2022/05/10 15:16:51;;;;;;;4.15;3.85;;;;;;;;;;5111370;28;20290;-56
2022/05/10 15:19:20;;;;;;;4.45;4.15;;;;;;;;;;5111927;28;20210;-56
2022/05/10 15:21:47;;;;;;;4.40;4.00;;;;;;;;;;5111438;28;20195;-56